Time;durP1;ratioP1;P1;durP2;ratioP2;P2;SDS_P1;SDS_P2;PMS_P1;PMS_P2;Temp;Humidity;BMP_temperature;BMP_pressure;BME280_temperature;BME280_humidity;BME280_pressure;Samples;Min_cycle;Max_cycle;Signal;HPM_P1;HPM_P2
2022/08/17 00:00:50;;;;;;;7.95;6.32;;;;;;;;;;5061939;28;20064;-58
2022/08/17 00:03:31;;;;;;;8.65;5.93;;;;;;;;;;5065753;28;20033;-58
2022/08/17 00:05:58;;;;;;;10.80;6.60;;;;;;;;;;5063234;28;20655;-58
2022/08/17 00:08:27;;;;;;;8.95;6.97;;;;;;;;;;5066249;28;20047;-58
2022/08/17 00:10:54;;;;;;;10.35;7.85;;;;;;;;;;5062677;28;20517;-58
2022/08/17 00:13:26;;;;;;;14.40;7.65;;;;;;;;;;5064044;28;20032;-58
2022/08/17 00:15:58;;;;;;;8.88;7.90;;;;;;;;;;5062954;28;20128;-58
2022/08/17 00:18:28;;;;;;;12.35;7.90;;;;;;;;;;5065346;28;20112;-58
2022/08/17 00:20:55;;;;;;;11.48;8.43;;;;;;;;;;5063062;28;20051;-58
2022/08/17 00:23:21;;;;;;;11.85;7.85;;;;;;;;;;5062115;28;20151;-58
2022/08/17 00:25:47;;;;;;;9.95;7.88;;;;;;;;;;5063919;28;20427;-58
2022/08/17 00:28:16;;;;;;;10.07;7.72;;;;;;;;;;5065100;28;20028;-58
2022/08/17 00:30:49;;;;;;;10.60;7.82;;;;;;;;;;5059021;28;20040;-58
2022/08/17 00:33:18;;;;;;;9.20;7.75;;;;;;;;;;5060284;28;20048;-58
2022/08/17 00:35:45;;;;;;;9.48;7.60;;;;;;;;;;5063247;28;20024;-58
2022/08/17 00:38:11;;;;;;;11.30;7.72;;;;;;;;;;5066935;28;20036;-58
2022/08/17 00:40:44;;;;;;;9.45;7.63;;;;;;;;;;5060893;28;20424;-58
2022/08/17 00:43:16;;;;;;;10.65;8.30;;;;;;;;;;5059102;28;20393;-58
2022/08/17 00:45:42;;;;;;;9.52;7.82;;;;;;;;;;5066281;28;20138;-58
2022/08/17 00:48:08;;;;;;;10.00;7.82;;;;;;;;;;5060843;28;20144;-58
2022/08/17 00:50:34;;;;;;;10.85;8.02;;;;;;;;;;5058708;28;20391;-58
2022/08/17 00:53:00;;;;;;;8.90;7.85;;;;;;;;;;5066823;28;20058;-58
2022/08/17 00:55:26;;;;;;;9.43;8.20;;;;;;;;;;5067419;28;20029;-58
2022/08/17 00:57:58;;;;;;;12.00;8.40;;;;;;;;;;5066485;28;20130;-58
2022/08/17 01:00:27;;;;;;;10.02;8.50;;;;;;;;;;5067405;28;20036;-59
2022/08/17 01:02:57;;;;;;;14.30;9.05;;;;;;;;;;5068328;28;20044;-58
2022/08/17 01:05:26;;;;;;;14.57;9.27;;;;;;;;;;5069966;28;21568;-58
2022/08/17 01:07:52;;;;;;;11.25;8.68;;;;;;;;;;5068321;28;20359;-58
2022/08/17 01:10:22;;;;;;;10.27;8.95;;;;;;;;;;5068591;28;20031;-58
2022/08/17 01:12:48;;;;;;;10.82;8.07;;;;;;;;;;5067518;28;20020;-58
2022/08/17 01:15:15;;;;;;;10.52;8.55;;;;;;;;;;5057850;28;20021;-58
2022/08/17 01:17:41;;;;;;;15.63;8.63;;;;;;;;;;5068124;28;20048;-59
2022/08/17 01:20:07;;;;;;;10.68;8.55;;;;;;;;;;5079158;28;20025;-58
2022/08/17 01:22:33;;;;;;;13.57;8.75;;;;;;;;;;5064384;28;20029;-58
2022/08/17 01:25:01;;;;;;;12.73;9.25;;;;;;;;;;5067645;28;20026;-59
2022/08/17 01:27:27;;;;;;;10.50;8.43;;;;;;;;;;5063022;28;20083;-58
2022/08/17 01:29:57;;;;;;;12.38;9.50;;;;;;;;;;5066618;28;20032;-58
2022/08/17 01:32:23;;;;;;;11.88;9.43;;;;;;;;;;5066353;28;20035;-58
2022/08/17 01:34:49;;;;;;;11.65;9.40;;;;;;;;;;5065602;28;20025;-58
2022/08/17 01:37:15;;;;;;;12.57;9.55;;;;;;;;;;5065521;28;20050;-58
2022/08/17 01:39:49;;;;;;;13.18;9.95;;;;;;;;;;5065048;28;20028;-58
2022/08/17 01:42:17;;;;;;;12.57;9.45;;;;;;;;;;5066800;28;20029;-58
2022/08/17 01:44:42;;;;;;;12.77;10.07;;;;;;;;;;5062657;28;20033;-58
2022/08/17 01:47:07;;;;;;;15.55;9.95;;;;;;;;;;5063332;28;20059;-58
2022/08/17 01:49:33;;;;;;;13.75;10.30;;;;;;;;;;5063759;28;20048;-58
2022/08/17 01:52:05;;;;;;;13.02;10.02;;;;;;;;;;5067002;28;20032;-58
2022/08/17 01:54:31;;;;;;;12.98;10.43;;;;;;;;;;5067701;28;20563;-58
2022/08/17 01:56:56;;;;;;;13.88;9.95;;;;;;;;;;5070338;28;20036;-58
2022/08/17 01:59:21;;;;;;;12.48;9.45;;;;;;;;;;5067699;28;20516;-58
2022/08/17 02:01:47;;;;;;;14.02;9.43;;;;;;;;;;5067655;28;20512;-58
2022/08/17 02:04:13;;;;;;;12.55;10.38;;;;;;;;;;5055673;28;20036;-58
2022/08/17 02:06:42;;;;;;;14.30;10.07;;;;;;;;;;5068114;28;20506;-58
2022/08/17 02:09:09;;;;;;;12.73;9.88;;;;;;;;;;5067457;28;20028;-58
2022/08/17 02:11:38;;;;;;;18.42;10.23;;;;;;;;;;5060822;28;20073;-58
2022/08/17 02:14:07;;;;;;;13.80;10.60;;;;;;;;;;5067811;28;20547;-59
2022/08/17 02:16:34;;;;;;;12.93;10.07;;;;;;;;;;5063153;28;20031;-58
2022/08/17 02:19:00;;;;;;;15.18;10.25;;;;;;;;;;5068123;28;20120;-58
2022/08/17 02:21:26;;;;;;;15.90;10.65;;;;;;;;;;5064570;28;20119;-59
2022/08/17 02:23:52;;;;;;;16.33;10.05;;;;;;;;;;5065676;28;20039;-60
2022/08/17 02:26:17;;;;;;;14.15;10.43;;;;;;;;;;5065381;28;20032;-58
2022/08/17 02:28:42;;;;;;;14.45;10.68;;;;;;;;;;5067227;28;20035;-58
2022/08/17 02:31:11;;;;;;;11.80;9.85;;;;;;;;;;5064280;28;20033;-58
2022/08/17 02:33:38;;;;;;;12.88;10.20;;;;;;;;;;5064715;28;20043;-58
2022/08/17 02:36:04;;;;;;;15.48;11.10;;;;;;;;;;5062189;28;20949;-58
2022/08/17 02:38:30;;;;;;;16.00;10.57;;;;;;;;;;5061320;28;20130;-58
2022/08/17 02:40:57;;;;;;;13.95;10.40;;;;;;;;;;5060686;28;20482;-58
2022/08/17 02:43:23;;;;;;;13.50;10.73;;;;;;;;;;5063610;28;21876;-59
2022/08/17 02:45:49;;;;;;;12.73;9.82;;;;;;;;;;5062549;28;20077;-58
2022/08/17 02:48:14;;;;;;;17.88;10.52;;;;;;;;;;5065390;28;20387;-58
2022/08/17 02:50:40;;;;;;;12.98;9.98;;;;;;;;;;5062328;28;20662;-58
2022/08/17 02:53:05;;;;;;;14.27;9.95;;;;;;;;;;5066734;28;20032;-58
2022/08/17 02:55:34;;;;;;;17.70;11.38;;;;;;;;;;5057722;28;20033;-58
2022/08/17 02:58:02;;;;;;;13.07;10.40;;;;;;;;;;5066774;28;20036;-58
2022/08/17 03:00:32;;;;;;;14.90;10.90;;;;;;;;;;5067674;28;20033;-58
2022/08/17 03:02:59;;;;;;;14.40;10.55;;;;;;;;;;5066632;28;20533;-58
2022/08/17 03:05:26;;;;;;;12.10;9.90;;;;;;;;;;5066036;28;20067;-58
2022/08/17 03:07:52;;;;;;;13.30;10.43;;;;;;;;;;5063182;28;20173;-58
2022/08/17 03:10:19;;;;;;;12.65;9.30;;;;;;;;;;5057153;28;20025;-58
2022/08/17 03:12:45;;;;;;;13.43;10.27;;;;;;;;;;5062877;28;20152;-58
2022/08/17 03:15:10;;;;;;;14.38;10.18;;;;;;;;;;5066283;28;20028;-58
2022/08/17 03:17:36;;;;;;;12.93;9.98;;;;;;;;;;5068533;28;20024;-58
2022/08/17 03:20:02;;;;;;;13.55;9.95;;;;;;;;;;5067123;28;20036;-58
2022/08/17 03:22:28;;;;;;;13.40;10.35;;;;;;;;;;5063154;28;20031;-58
2022/08/17 03:24:54;;;;;;;11.52;9.80;;;;;;;;;;5064727;28;20025;-58
2022/08/17 03:27:20;;;;;;;15.65;9.63;;;;;;;;;;5064799;28;20108;-58
2022/08/17 03:29:45;;;;;;;14.05;9.18;;;;;;;;;;5065535;28;20131;-58
2022/08/17 03:32:13;;;;;;;13.30;9.32;;;;;;;;;;5065635;28;20086;-58
2022/08/17 03:34:39;;;;;;;12.38;8.50;;;;;;;;;;5061554;28;20024;-58
2022/08/17 03:37:04;;;;;;;11.23;8.55;;;;;;;;;;5066685;28;20104;-59
2022/08/17 03:39:29;;;;;;;10.10;8.48;;;;;;;;;;5065689;28;20024;-59
2022/08/17 03:42:18;;;;;;;11.95;8.43;;;;;;;;;;5056534;28;20029;-59
2022/08/17 03:44:48;;;;;;;11.60;8.80;;;;;;;;;;5064313;28;20535;-59
2022/08/17 03:58:09;;;;;;;11.20;8.13;;;;;;;;;;5065384;28;20074;-58
2022/08/17 04:00:35;;;;;;;10.25;8.15;;;;;;;;;;5066556;28;20064;-59
2022/08/17 04:03:01;;;;;;;11.35;8.30;;;;;;;;;;5065498;28;20029;-59
2022/08/17 04:05:27;;;;;;;11.07;8.15;;;;;;;;;;5066141;28;20024;-60
2022/08/17 04:07:52;;;;;;;10.90;8.73;;;;;;;;;;5065893;28;20141;-60
2022/08/17 04:10:17;;;;;;;11.02;8.20;;;;;;;;;;5067782;28;20504;-58
2022/08/17 04:12:48;;;;;;;9.60;7.95;;;;;;;;;;5061500;28;20458;-60
2022/08/17 04:15:14;;;;;;;10.80;8.10;;;;;;;;;;5063317;28;20143;-60
2022/08/17 04:17:40;;;;;;;10.32;8.70;;;;;;;;;;5066514;28;20016;-60
2022/08/17 04:20:06;;;;;;;9.63;8.63;;;;;;;;;;5064695;28;20086;-60
2022/08/17 04:22:31;;;;;;;11.85;8.77;;;;;;;;;;5062645;28;20044;-60
2022/08/17 04:24:57;;;;;;;15.93;8.73;;;;;;;;;;5062457;28;20033;-60
2022/08/17 04:27:23;;;;;;;13.75;8.95;;;;;;;;;;5064746;28;20040;-59
2022/08/17 04:29:48;;;;;;;12.85;8.90;;;;;;;;;;5064170;28;20029;-60
2022/08/17 04:32:13;;;;;;;11.27;8.50;;;;;;;;;;5062336;28;20028;-60
2022/08/17 04:34:39;;;;;;;14.07;8.93;;;;;;;;;;5062003;28;20478;-60
2022/08/17 04:37:04;;;;;;;12.55;8.30;;;;;;;;;;5067881;28;20024;-59
2022/08/17 04:39:30;;;;;;;12.85;7.70;;;;;;;;;;5070614;28;20036;-60
2022/08/17 04:42:15;;;;;;;10.82;8.20;;;;;;;;;;5070650;28;20028;-59
2022/08/17 04:44:42;;;;;;;13.10;8.32;;;;;;;;;;5064806;28;20016;-59
2022/08/17 04:47:08;;;;;;;11.57;8.27;;;;;;;;;;5067690;28;20489;-59
2022/08/17 04:49:33;;;;;;;13.70;8.60;;;;;;;;;;5064498;28;20074;-59
2022/08/17 04:51:59;;;;;;;10.68;8.20;;;;;;;;;;5067687;28;20032;-59
2022/08/17 04:54:25;;;;;;;10.73;8.18;;;;;;;;;;5070189;28;20070;-60
2022/08/17 04:56:51;;;;;;;14.15;7.82;;;;;;;;;;5071389;28;20032;-59
2022/08/17 04:59:20;;;;;;;12.00;7.95;;;;;;;;;;5070674;28;20515;-60
2022/08/17 05:01:48;;;;;;;13.13;7.28;;;;;;;;;;5069166;28;20554;-60
2022/08/17 05:04:17;;;;;;;8.25;7.10;;;;;;;;;;5068017;28;20545;-60
2022/08/17 05:06:44;;;;;;;7.90;6.93;;;;;;;;;;5068283;28;20028;-60
2022/08/17 05:09:10;;;;;;;10.57;8.48;;;;;;;;;;5068743;28;20050;-60
2022/08/17 05:11:36;;;;;;;10.32;7.78;;;;;;;;;;5067843;28;20025;-60
2022/08/17 05:14:02;;;;;;;11.50;7.35;;;;;;;;;;5064655;28;20458;-60
2022/08/17 05:16:28;;;;;;;11.23;7.65;;;;;;;;;;5066880;28;20028;-60
2022/08/17 05:18:54;;;;;;;10.60;7.25;;;;;;;;;;5062244;28;20020;-59
2022/08/17 05:21:21;;;;;;;10.88;6.95;;;;;;;;;;5063187;28;20115;-60
2022/08/17 05:23:47;;;;;;;18.95;7.28;;;;;;;;;;5067159;28;20329;-59
2022/08/17 05:26:16;;;;;;;10.52;7.78;;;;;;;;;;5070541;28;20111;-59
2022/08/17 05:28:42;;;;;;;11.35;7.50;;;;;;;;;;5068639;28;20035;-59
2022/08/17 05:31:07;;;;;;;8.15;7.35;;;;;;;;;;5069667;28;20036;-59
2022/08/17 05:33:35;;;;;;;14.18;9.40;;;;;;;;;;5066291;28;20047;-59
2022/08/17 05:36:03;;;;;;;12.52;8.95;;;;;;;;;;5065592;28;20028;-59
2022/08/17 05:38:29;;;;;;;18.10;8.88;;;;;;;;;;5064535;28;20056;-60
2022/08/17 05:40:57;;;;;;;9.20;8.10;;;;;;;;;;5067425;28;20062;-59
2022/08/17 05:43:25;;;;;;;15.07;9.02;;;;;;;;;;5066159;28;20040;-59
2022/08/17 05:46:04;;;;;;;11.63;8.15;;;;;;;;;;5067198;28;20025;-59
2022/08/17 05:48:37;;;;;;;13.32;8.00;;;;;;;;;;5067277;28;20037;-59
2022/08/17 05:51:08;;;;;;;11.40;8.38;;;;;;;;;;5068854;28;20028;-59
2022/08/17 05:53:48;;;;;;;12.38;8.70;;;;;;;;;;5061738;28;20021;-59
2022/08/17 05:56:45;;;;;;;9.63;7.47;;;;;;;;;;5067943;28;20026;-59
2022/08/17 05:59:33;;;;;;;14.10;7.93;;;;;;;;;;5066641;28;20036;-59
2022/08/17 06:02:07;;;;;;;12.13;8.05;;;;;;;;;;5066421;28;20024;-59
2022/08/17 06:04:54;;;;;;;12.57;8.20;;;;;;;;;;5064225;28;20029;-59
2022/08/17 06:07:33;;;;;;;12.30;8.05;;;;;;;;;;5067983;28;20028;-59
2022/08/17 06:10:09;;;;;;;13.00;8.90;;;;;;;;;;5067377;28;20035;-59
2022/08/17 06:12:42;;;;;;;12.63;8.85;;;;;;;;;;5056897;28;20268;-59
2022/08/17 06:15:26;;;;;;;15.98;8.55;;;;;;;;;;5063480;28;20513;-59
2022/08/17 06:17:56;;;;;;;11.60;8.23;;;;;;;;;;5068364;28;20025;-61
2022/08/17 06:20:24;;;;;;;13.55;9.25;;;;;;;;;;5068199;28;20093;-61
2022/08/17 06:22:54;;;;;;;12.95;9.35;;;;;;;;;;5067778;28;20280;-59
2022/08/17 06:25:32;;;;;;;9.52;7.75;;;;;;;;;;5068474;28;20088;-59
2022/08/17 06:28:03;;;;;;;9.70;8.18;;;;;;;;;;5064947;28;20299;-59
2022/08/17 06:30:33;;;;;;;13.65;8.00;;;;;;;;;;5065167;28;20016;-59
2022/08/17 06:33:06;;;;;;;12.32;7.93;;;;;;;;;;5065875;28;20017;-59
2022/08/17 06:35:38;;;;;;;13.15;8.38;;;;;;;;;;5060708;28;20107;-59
2022/08/17 06:38:07;;;;;;;9.88;7.93;;;;;;;;;;5068037;28;20055;-59
2022/08/17 06:40:44;;;;;;;15.32;8.23;;;;;;;;;;5065017;28;20025;-59
2022/08/17 06:43:25;;;;;;;15.40;10.77;;;;;;;;;;5059378;28;20036;-59
2022/08/17 06:46:05;;;;;;;11.43;8.80;;;;;;;;;;5069546;28;20232;-59
2022/08/17 06:48:51;;;;;;;13.00;8.15;;;;;;;;;;5067099;28;20029;-59
2022/08/17 06:51:51;;;;;;;11.55;8.40;;;;;;;;;;5062195;28;20036;-59
2022/08/17 06:54:35;;;;;;;11.43;8.15;;;;;;;;;;5059803;28;20067;-59
2022/08/17 06:57:18;;;;;;;15.60;9.23;;;;;;;;;;5069501;28;20024;-61
2022/08/17 06:59:50;;;;;;;12.98;8.70;;;;;;;;;;5068666;28;20020;-58
2022/08/17 07:02:51;;;;;;;13.65;7.90;;;;;;;;;;5060818;28;20020;-59
2022/08/17 07:05:19;;;;;;;10.38;7.70;;;;;;;;;;5065934;28;20062;-60
2022/08/17 07:08:13;;;;;;;10.32;7.80;;;;;;;;;;5060801;28;20016;-59
2022/08/17 07:11:03;;;;;;;8.60;7.70;;;;;;;;;;5067024;28;20036;-60
2022/08/17 07:13:50;;;;;;;10.13;7.75;;;;;;;;;;5058837;28;20021;-59
2022/08/17 07:16:22;;;;;;;9.55;7.97;;;;;;;;;;5063843;28;20024;-59
2022/08/17 07:18:50;;;;;;;11.48;8.20;;;;;;;;;;5067650;28;20028;-60
2022/08/17 07:21:37;;;;;;;10.82;8.18;;;;;;;;;;5063306;28;20024;-60
2022/08/17 07:24:02;;;;;;;9.40;8.10;;;;;;;;;;5064547;28;20040;-59
2022/08/17 07:26:28;;;;;;;9.57;7.75;;;;;;;;;;5066055;28;20436;-60
2022/08/17 07:28:57;;;;;;;9.75;8.15;;;;;;;;;;5065015;28;20390;-59
2022/08/17 07:31:24;;;;;;;13.27;8.52;;;;;;;;;;5065939;28;20716;-60
2022/08/17 07:34:01;;;;;;;12.93;8.38;;;;;;;;;;5061039;28;20063;-60
2022/08/17 07:36:32;;;;;;;10.70;8.35;;;;;;;;;;5063154;28;20028;-60
2022/08/17 07:38:58;;;;;;;8.70;7.80;;;;;;;;;;5067616;28;20038;-60
2022/08/17 07:41:23;;;;;;;14.18;8.10;;;;;;;;;;5064762;28;20033;-60
2022/08/17 07:43:51;;;;;;;12.25;7.93;;;;;;;;;;5067160;28;20020;-60
2022/08/17 07:49:02;;;;;;;11.00;8.18;;;;;;;;;;5063530;28;20106;-60
2022/08/17 07:51:31;;;;;;;12.10;7.95;;;;;;;;;;5064467;28;20493;-60
2022/08/17 07:54:21;;;;;;;15.23;8.73;;;;;;;;;;5065971;28;20505;-60
2022/08/17 07:56:59;;;;;;;11.75;8.48;;;;;;;;;;5065073;28;20034;-60
2022/08/17 07:59:30;;;;;;;10.43;8.82;;;;;;;;;;5063819;28;20021;-60
2022/08/17 08:02:03;;;;;;;10.98;8.48;;;;;;;;;;5064135;28;20028;-60
2022/08/17 08:04:41;;;;;;;9.57;7.63;;;;;;;;;;5064569;28;20029;-60
2022/08/17 08:07:12;;;;;;;10.32;7.65;;;;;;;;;;5065216;28;20037;-60
2022/08/17 08:09:42;;;;;;;9.80;8.00;;;;;;;;;;5063624;28;20394;-60
2022/08/17 08:12:40;;;;;;;12.60;8.18;;;;;;;;;;5058824;28;20128;-61
2022/08/17 08:15:22;;;;;;;11.95;8.32;;;;;;;;;;5062021;28;20044;-60
2022/08/17 08:17:57;;;;;;;10.15;8.00;;;;;;;;;;5067015;28;20033;-60
2022/08/17 08:20:36;;;;;;;10.82;8.20;;;;;;;;;;5063754;28;20043;-60
2022/08/17 08:23:10;;;;;;;10.07;8.38;;;;;;;;;;5062746;28;20058;-61
2022/08/17 08:25:41;;;;;;;9.52;7.85;;;;;;;;;;5066258;28;20060;-60
2022/08/17 08:28:33;;;;;;;10.43;8.20;;;;;;;;;;5066147;28;20394;-60
2022/08/17 08:31:11;;;;;;;8.18;7.20;;;;;;;;;;5062737;28;20028;-60
2022/08/17 08:33:46;;;;;;;9.07;7.80;;;;;;;;;;5065478;28;20099;-60
2022/08/17 08:36:23;;;;;;;11.00;7.93;;;;;;;;;;5066432;28;20071;-61
2022/08/17 08:39:02;;;;;;;10.85;8.15;;;;;;;;;;5061939;28;20033;-60
2022/08/17 08:41:37;;;;;;;8.67;7.87;;;;;;;;;;5065717;28;20028;-63
2022/08/17 08:44:22;;;;;;;11.82;8.32;;;;;;;;;;5067172;28;20273;-60
2022/08/17 08:46:59;;;;;;;10.25;7.95;;;;;;;;;;5058005;28;20108;-60
2022/08/17 08:49:33;;;;;;;9.00;8.07;;;;;;;;;;5065426;28;20035;-60
2022/08/17 08:52:01;;;;;;;9.93;8.65;;;;;;;;;;5059148;28;20707;-61
2022/08/17 08:54:45;;;;;;;11.90;8.10;;;;;;;;;;5067019;28;20046;-60
2022/08/17 08:57:18;;;;;;;16.42;8.20;;;;;;;;;;5060859;28;20428;-61
2022/08/17 08:59:55;;;;;;;9.70;7.85;;;;;;;;;;5066656;28;20481;-62
2022/08/17 09:02:57;;;;;;;10.25;8.05;;;;;;;;;;5060382;28;20037;-60
2022/08/17 09:05:55;;;;;;;11.30;8.63;;;;;;;;;;5065299;28;20059;-60
2022/08/17 09:08:47;;;;;;;11.57;8.77;;;;;;;;;;5061488;28;20066;-60
2022/08/17 09:11:27;;;;;;;11.77;8.65;;;;;;;;;;5065243;28;20489;-62
2022/08/17 09:14:14;;;;;;;13.65;8.50;;;;;;;;;;5063446;28;20028;-61
2022/08/17 09:17:03;;;;;;;11.55;8.45;;;;;;;;;;5064807;28;20020;-61
2022/08/17 09:19:37;;;;;;;12.18;8.52;;;;;;;;;;5063959;28;20043;-61
2022/08/17 09:22:41;;;;;;;13.32;9.00;;;;;;;;;;5064684;28;20029;-62
2022/08/17 09:25:17;;;;;;;15.18;8.63;;;;;;;;;;5067877;28;20074;-61
2022/08/17 09:27:58;;;;;;;11.95;8.18;;;;;;;;;;5069415;28;20068;-61
2022/08/17 09:30:35;;;;;;;10.73;8.57;;;;;;;;;;5068841;28;20037;-61
2022/08/17 09:33:08;;;;;;;9.93;8.20;;;;;;;;;;5070192;28;20489;-61
2022/08/17 09:35:43;;;;;;;11.63;8.50;;;;;;;;;;5070066;28;20481;-61
2022/08/17 09:38:51;;;;;;;11.45;8.90;;;;;;;;;;5072532;28;20722;-62
2022/08/17 09:41:25;;;;;;;12.00;8.80;;;;;;;;;;5067636;28;20055;-62
2022/08/17 09:44:00;;;;;;;11.73;8.73;;;;;;;;;;5063913;28;20040;-62
2022/08/17 09:46:31;;;;;;;10.90;9.10;;;;;;;;;;5067994;28;20025;-62
2022/08/17 09:49:32;;;;;;;9.52;8.52;;;;;;;;;;5069561;28;20032;-61
2022/08/17 09:52:02;;;;;;;11.43;8.63;;;;;;;;;;5063191;28;20430;-61
2022/08/17 09:54:30;;;;;;;11.15;8.63;;;;;;;;;;5069370;28;20533;-62
2022/08/17 09:57:11;;;;;;;10.70;9.55;;;;;;;;;;5063899;28;20052;-61
2022/08/17 09:59:59;;;;;;;16.00;9.18;;;;;;;;;;5069082;28;20021;-62
2022/08/17 10:02:49;;;;;;;12.27;8.77;;;;;;;;;;5066820;28;20381;-61
2022/08/17 10:05:30;;;;;;;11.27;9.20;;;;;;;;;;5063232;28;20398;-61
2022/08/17 10:08:26;;;;;;;11.50;8.65;;;;;;;;;;5066097;28;20655;-61
2022/08/17 10:11:15;;;;;;;9.38;8.50;;;;;;;;;;5064147;28;20042;-61
2022/08/17 10:14:02;;;;;;;11.38;9.15;;;;;;;;;;5066020;28;20082;-61
2022/08/17 10:16:44;;;;;;;13.98;9.48;;;;;;;;;;5067048;28;20040;-61
2022/08/17 10:19:17;;;;;;;11.00;9.25;;;;;;;;;;5067675;28;20115;-61
2022/08/17 10:27:41;;;;;;;11.85;9.20;;;;;;;;;;5068815;28;20047;-60
2022/08/17 10:30:09;;;;;;;12.80;9.18;;;;;;;;;;5068163;28;20264;-60
2022/08/17 10:32:46;;;;;;;11.52;8.45;;;;;;;;;;5061936;28;20539;-60
2022/08/17 10:35:38;;;;;;;13.00;10.80;;;;;;;;;;5085023;28;20023;-61
2022/08/17 10:38:25;;;;;;;15.32;10.52;;;;;;;;;;5064633;28;20076;-60
2022/08/17 10:40:56;;;;;;;19.23;11.18;;;;;;;;;;5064858;28;20120;-59
2022/08/17 10:43:43;;;;;;;12.93;9.90;;;;;;;;;;5065776;28;20545;-60
2022/08/17 10:46:20;;;;;;;14.18;10.27;;;;;;;;;;5066043;28;20522;-60
2022/08/17 10:49:20;;;;;;;13.70;9.98;;;;;;;;;;5059576;28;20047;-59
2022/08/17 10:51:55;;;;;;;15.65;10.18;;;;;;;;;;5066908;28;20028;-59
2022/08/17 10:54:23;;;;;;;13.45;9.55;;;;;;;;;;5062152;28;20043;-60
2022/08/17 10:56:50;;;;;;;11.60;10.20;;;;;;;;;;5066887;28;20078;-60
2022/08/17 10:59:33;;;;;;;12.07;9.82;;;;;;;;;;5064593;28;20029;-60
2022/08/17 11:02:05;;;;;;;15.43;9.27;;;;;;;;;;5062594;28;20028;-61
2022/08/17 11:05:05;;;;;;;12.73;9.32;;;;;;;;;;5064065;28;20028;-60
2022/08/17 11:07:36;;;;;;;10.82;8.93;;;;;;;;;;5067775;28;20099;-61
2022/08/17 11:10:33;;;;;;;10.65;9.02;;;;;;;;;;5064935;28;20402;-61
2022/08/17 11:13:20;;;;;;;10.32;8.30;;;;;;;;;;5061352;28;20017;-60
2022/08/17 11:16:07;;;;;;;10.60;8.13;;;;;;;;;;5060071;28;20059;-61
2022/08/17 11:19:08;;;;;;;9.57;7.80;;;;;;;;;;5065583;28;20054;-61
2022/08/17 11:22:01;;;;;;;10.20;7.82;;;;;;;;;;5063863;28;20509;-59
2022/08/17 11:24:31;;;;;;;9.07;7.78;;;;;;;;;;5066486;28;20048;-59
2022/08/17 11:27:04;;;;;;;8.93;7.95;;;;;;;;;;5065464;28;20429;-59
2022/08/17 11:29:37;;;;;;;15.57;7.78;;;;;;;;;;5064925;28;20417;-59
2022/08/17 11:32:26;;;;;;;10.43;7.85;;;;;;;;;;5064818;28;20111;-59
2022/08/17 11:35:10;;;;;;;11.27;7.88;;;;;;;;;;5062048;28;20031;-58
2022/08/17 11:38:17;;;;;;;15.07;8.38;;;;;;;;;;5066996;28;20029;-58
2022/08/17 11:41:03;;;;;;;9.70;7.90;;;;;;;;;;5067025;28;20429;-58
2022/08/17 11:43:55;;;;;;;12.82;8.00;;;;;;;;;;5063603;28;20020;-58
2022/08/17 11:52:40;;;;;;;9.05;7.93;;;;;;;;;;5064006;28;20125;-58
2022/08/17 11:55:09;;;;;;;9.85;7.90;;;;;;;;;;5066179;28;20050;-60
2022/08/17 11:57:40;;;;;;;11.02;7.85;;;;;;;;;;5064023;28;20437;-58
2022/08/17 12:00:11;;;;;;;10.80;8.00;;;;;;;;;;5065761;28;20048;-58
2022/08/17 12:02:43;;;;;;;9.40;7.70;;;;;;;;;;5059508;28;20104;-58
2022/08/17 12:05:11;;;;;;;10.27;8.02;;;;;;;;;;5060104;28;20049;-58
2022/08/17 12:07:45;;;;;;;10.40;8.38;;;;;;;;;;5063620;28;20042;-58
2022/08/17 12:10:14;;;;;;;11.57;8.18;;;;;;;;;;5061867;28;20482;-59
2022/08/17 12:12:42;;;;;;;12.63;8.35;;;;;;;;;;5058109;28;20021;-58
2022/08/17 12:15:16;;;;;;;11.60;7.70;;;;;;;;;;5064240;28;20033;-58
2022/08/17 12:17:53;;;;;;;9.15;7.53;;;;;;;;;;5067646;28;20024;-58
2022/08/17 12:20:32;;;;;;;9.85;7.28;;;;;;;;;;5064018;28;20035;-58
2022/08/17 12:23:22;;;;;;;8.70;7.53;;;;;;;;;;5064190;28;20024;-58
2022/08/17 12:26:06;;;;;;;7.20;6.50;;;;;;;;;;5058646;28;20031;-58
2022/08/17 12:28:37;;;;;;;8.82;6.97;;;;;;;;;;5066097;28;20017;-58
2022/08/17 12:31:10;;;;;;;11.38;6.15;;;;;;;;;;5067601;28;20039;-61
2022/08/17 12:33:42;;;;;;;6.47;5.78;;;;;;;;;;5067297;28;20029;-61
2022/08/17 12:36:13;;;;;;;6.40;5.53;;;;;;;;;;5062475;28;20442;-61
2022/08/17 12:38:40;;;;;;;5.53;4.97;;;;;;;;;;5060564;28;20395;-61
2022/08/17 12:41:25;;;;;;;9.27;5.15;;;;;;;;;;5063619;28;20141;-61
2022/08/17 12:44:00;;;;;;;6.72;5.22;;;;;;;;;;5060646;28;20028;-61
2022/08/17 12:46:27;;;;;;;5.28;4.70;;;;;;;;;;5064119;28;20028;-61
2022/08/17 12:48:53;;;;;;;7.20;5.22;;;;;;;;;;5060804;28;20028;-61
2022/08/17 12:51:19;;;;;;;5.65;5.13;;;;;;;;;;5059389;28;20029;-62
2022/08/17 12:53:53;;;;;;;8.13;5.22;;;;;;;;;;5067356;28;20028;-60
2022/08/17 12:56:19;;;;;;;7.00;5.25;;;;;;;;;;5066128;28;20028;-60
2022/08/17 12:58:54;;;;;;;7.57;5.22;;;;;;;;;;5069623;28;20111;-60
2022/08/17 13:01:22;;;;;;;8.60;5.97;;;;;;;;;;5066779;28;20032;-60
2022/08/17 13:03:51;;;;;;;7.63;5.80;;;;;;;;;;5066902;28;20028;-60
2022/08/17 13:06:30;;;;;;;6.82;5.82;;;;;;;;;;5065271;28;20131;-58
2022/08/17 13:09:08;;;;;;;6.03;5.43;;;;;;;;;;5063152;28;20024;-58
2022/08/17 13:11:33;;;;;;;9.25;5.65;;;;;;;;;;5064406;28;20021;-58
2022/08/17 13:14:08;;;;;;;6.60;5.85;;;;;;;;;;5067185;28;20178;-58
2022/08/17 13:16:34;;;;;;;9.30;5.80;;;;;;;;;;5067204;28;20039;-58
2022/08/17 13:19:15;;;;;;;6.40;5.03;;;;;;;;;;5063618;28;20028;-57
2022/08/17 13:21:49;;;;;;;9.05;6.40;;;;;;;;;;5067834;28;20028;-57
2022/08/17 13:24:22;;;;;;;8.05;5.68;;;;;;;;;;5066318;28;20470;-59
2022/08/17 13:26:51;;;;;;;8.35;5.95;;;;;;;;;;5062288;28;20439;-59
2022/08/17 13:29:33;;;;;;;6.47;5.85;;;;;;;;;;5063667;28;20394;-59
2022/08/17 13:32:08;;;;;;;7.72;5.60;;;;;;;;;;5063903;28;20033;-59
2022/08/17 13:34:35;;;;;;;6.28;5.68;;;;;;;;;;5062963;28;20032;-59
2022/08/17 13:37:25;;;;;;;7.93;5.82;;;;;;;;;;5060695;28;20035;-59
2022/08/17 13:40:13;;;;;;;9.48;6.13;;;;;;;;;;5066240;28;20028;-59
2022/08/17 13:42:39;;;;;;;7.45;6.18;;;;;;;;;;5068292;28;20032;-60
2022/08/17 13:45:29;;;;;;;11.00;6.18;;;;;;;;;;5065964;28;20028;-60
2022/08/17 13:48:22;;;;;;;9.80;6.43;;;;;;;;;;5069275;28;20032;-59
2022/08/17 13:50:51;;;;;;;6.82;6.03;;;;;;;;;;5069810;28;20028;-60
2022/08/17 13:53:16;;;;;;;8.10;6.43;;;;;;;;;;5068397;28;20017;-60
2022/08/17 13:55:50;;;;;;;9.93;6.15;;;;;;;;;;5069559;28;20021;-60
2022/08/17 13:58:22;;;;;;;8.75;6.88;;;;;;;;;;5054459;28;20029;-59
2022/08/17 14:00:50;;;;;;;8.73;6.25;;;;;;;;;;5064157;28;20032;-60
2022/08/17 14:03:16;;;;;;;8.52;6.10;;;;;;;;;;5059409;28;20514;-60
2022/08/17 14:05:41;;;;;;;6.95;5.85;;;;;;;;;;5065803;28;20052;-60
2022/08/17 14:08:10;;;;;;;7.28;5.57;;;;;;;;;;5068227;28;20032;-60
2022/08/17 14:10:35;;;;;;;9.88;5.82;;;;;;;;;;5067582;28;20405;-60
2022/08/17 14:13:01;;;;;;;7.47;6.47;;;;;;;;;;5062912;28;20033;-60
2022/08/17 14:15:26;;;;;;;6.97;6.13;;;;;;;;;;5067647;28;20032;-60
2022/08/17 14:17:52;;;;;;;7.05;5.90;;;;;;;;;;5069745;28;20020;-59
2022/08/17 14:20:20;;;;;;;9.18;5.88;;;;;;;;;;5067491;28;20036;-59
2022/08/17 14:22:52;;;;;;;8.40;5.93;;;;;;;;;;5068659;28;20111;-59
2022/08/17 14:25:21;;;;;;;14.35;8.88;;;;;;;;;;5069132;28;20040;-59
2022/08/17 14:27:48;;;;;;;21.33;16.30;;;;;;;;;;5069933;28;20557;-60
2022/08/17 14:30:14;;;;;;;12.02;8.32;;;;;;;;;;5068652;28;20060;-59
2022/08/17 14:32:40;;;;;;;7.57;6.65;;;;;;;;;;5060245;28;20051;-59
2022/08/17 14:35:07;;;;;;;10.00;5.93;;;;;;;;;;5064784;28;20099;-58
2022/08/17 14:37:33;;;;;;;8.48;5.10;;;;;;;;;;5060605;28;20394;-59
2022/08/17 14:40:04;;;;;;;6.30;5.22;;;;;;;;;;5063143;28;20077;-60
2022/08/17 14:42:31;;;;;;;8.70;5.22;;;;;;;;;;5067752;28;20078;-60
2022/08/17 14:44:57;;;;;;;8.07;4.63;;;;;;;;;;5068124;28;20028;-60
2022/08/17 14:47:23;;;;;;;6.55;5.20;;;;;;;;;;5067067;28;20328;-60
2022/08/17 14:49:48;;;;;;;5.43;4.78;;;;;;;;;;5058917;28;20115;-60
2022/08/17 14:52:20;;;;;;;6.68;5.28;;;;;;;;;;5063046;28;20032;-60
2022/08/17 14:54:50;;;;;;;6.45;4.90;;;;;;;;;;5063232;28;20021;-60
2022/08/17 14:57:20;;;;;;;5.97;4.82;;;;;;;;;;5061830;28;20645;-60
2022/08/17 14:59:46;;;;;;;7.50;5.28;;;;;;;;;;5065788;28;20174;-59
2022/08/17 15:02:12;;;;;;;5.78;4.97;;;;;;;;;;5070543;28;20112;-60
2022/08/17 15:04:38;;;;;;;7.13;5.30;;;;;;;;;;5072513;28;20111;-60
2022/08/17 15:07:05;;;;;;;9.18;4.90;;;;;;;;;;5066327;28;20557;-63
2022/08/17 15:09:31;;;;;;;5.35;4.85;;;;;;;;;;5065745;28;20520;-57
2022/08/17 15:11:57;;;;;;;5.90;5.30;;;;;;;;;;5067088;28;20036;-58
2022/08/17 15:14:22;;;;;;;5.38;4.88;;;;;;;;;;5064193;28;20441;-58
2022/08/17 15:16:48;;;;;;;5.78;4.90;;;;;;;;;;5071832;28;20048;-58
2022/08/17 15:19:13;;;;;;;8.77;5.18;;;;;;;;;;5066879;28;20038;-58
2022/08/17 15:21:40;;;;;;;6.13;4.75;;;;;;;;;;5068853;28;20089;-58
2022/08/17 15:24:06;;;;;;;5.82;4.80;;;;;;;;;;5070155;28;20486;-57
2022/08/17 15:26:32;;;;;;;6.60;4.95;;;;;;;;;;5071968;28;20033;-58
2022/08/17 15:28:57;;;;;;;6.53;4.75;;;;;;;;;;5068159;28;20059;-57
2022/08/17 15:31:24;;;;;;;6.75;4.68;;;;;;;;;;5061224;28;20501;-57